Time;durP1;ratioP1;P1;durP2;ratioP2;P2;SDS_P1;SDS_P2;PMS_P1;PMS_P2;Temp;Humidity;BMP_temperature;BMP_pressure;BME280_temperature;BME280_humidity;BME280_pressure;Samples;Min_cycle;Max_cycle;Signal;HPM_P1;HPM_P2
2022/10/04 00:00:43;;;;;;;5.45;4.00;;;18.90;99.90;;;;;;4156146;28;20225;-78
2022/10/04 00:02:47;;;;;;;5.18;3.92;;;18.90;99.90;;;;;;4150838;28;20271;-77
2022/10/04 00:04:58;;;;;;;6.32;4.10;;;18.90;99.90;;;;;;4149048;28;20298;-78
2022/10/04 00:07:05;;;;;;;5.03;3.65;;;18.90;99.90;;;;;;4148661;28;20321;-78
2022/10/04 00:09:14;;;;;;;5.32;3.90;;;18.90;99.90;;;;;;4153142;28;20369;-77
2022/10/04 00:11:22;;;;;;;5.93;3.90;;;18.90;99.90;;;;;;4148646;28;20217;-77
2022/10/04 00:13:28;;;;;;;4.82;3.50;;;18.90;99.90;;;;;;4139282;28;20209;-78
2022/10/04 00:15:33;;;;;;;5.88;3.67;;;18.90;99.90;;;;;;4149015;28;20213;-77
2022/10/04 00:17:36;;;;;;;5.18;3.55;;;18.90;99.90;;;;;;4156168;28;20209;-77
2022/10/04 00:19:44;;;;;;;5.13;3.53;;;18.90;99.90;;;;;;4145598;28;20213;-78
2022/10/04 00:22:17;;;;;;;4.95;3.78;;;18.90;99.90;;;;;;4148461;28;20258;-78
2022/10/04 00:24:21;;;;;;;4.53;3.75;;;18.90;99.90;;;;;;4150271;28;20245;-78
2022/10/04 00:27:03;;;;;;;6.70;4.00;;;18.90;99.90;;;;;;4153256;28;20263;-78
2022/10/04 00:29:34;;;;;;;5.60;3.83;;;18.90;99.90;;;;;;4161606;28;20220;-78
2022/10/04 00:32:15;;;;;;;5.22;3.92;;;18.80;99.90;;;;;;4143759;28;20268;-78
2022/10/04 00:34:48;;;;;;;5.50;3.65;;;18.90;99.90;;;;;;4143488;28;20229;-78
2022/10/04 00:36:54;;;;;;;5.47;3.88;;;18.90;99.90;;;;;;4146297;28;20728;-78
2022/10/04 00:39:13;;;;;;;4.72;3.72;;;18.80;99.90;;;;;;4145590;28;20611;-78
2022/10/04 00:41:16;;;;;;;5.72;3.65;;;18.80;99.90;;;;;;4144904;28;20217;-78
2022/10/04 00:43:23;;;;;;;4.47;3.78;;;18.80;99.90;;;;;;4146525;28;20252;-78
2022/10/04 00:45:32;;;;;;;4.75;4.00;;;18.80;99.90;;;;;;4146479;28;20241;-78
2022/10/04 00:47:55;;;;;;;5.20;4.15;;;18.80;99.90;;;;;;4146141;28;20220;-78
2022/10/04 00:50:08;;;;;;;4.75;3.30;;;18.80;99.90;;;;;;4146363;28;20636;-77
2022/10/04 00:52:18;;;;;;;7.07;4.07;;;18.80;99.90;;;;;;4146146;28;20702;-77
2022/10/04 00:54:29;;;;;;;5.03;3.67;;;18.80;99.90;;;;;;4145028;28;20271;-77
2022/10/04 00:56:39;;;;;;;5.28;3.55;;;18.80;99.90;;;;;;4152674;28;20229;-78
2022/10/04 00:59:03;;;;;;;5.13;3.58;;;18.80;99.90;;;;;;4151933;28;20233;-78
2022/10/04 01:01:06;;;;;;;5.93;3.88;;;18.80;99.90;;;;;;4143912;28;20566;-78
2022/10/04 01:03:15;;;;;;;4.75;3.50;;;18.80;99.90;;;;;;4148164;28;20229;-78
2022/10/04 01:05:21;;;;;;;5.00;3.80;;;18.80;99.90;;;;;;4147626;28;20298;-77
2022/10/04 01:07:28;;;;;;;4.85;4.25;;;18.80;99.90;;;;;;4145794;28;20210;-78
2022/10/04 01:09:33;;;;;;;5.00;3.90;;;18.80;99.90;;;;;;4142602;28;20224;-77
2022/10/04 01:11:38;;;;;;;6.50;4.10;;;18.80;99.90;;;;;;4146236;28;20300;-77
2022/10/04 01:13:45;;;;;;;4.63;3.63;;;18.80;99.90;;;;;;4146170;28;20259;-78
2022/10/04 01:15:54;;;;;;;7.28;3.90;;;18.80;99.90;;;;;;4146091;28;20213;-78
2022/10/04 01:18:12;;;;;;;5.65;3.60;;;18.80;99.90;;;;;;4145715;28;20634;-78
2022/10/04 01:20:30;;;;;;;6.00;3.63;;;18.80;99.90;;;;;;4146588;28;20263;-78
2022/10/04 01:22:39;;;;;;;5.43;3.90;;;18.80;99.90;;;;;;4146471;28;20213;-78
2022/10/04 01:24:43;;;;;;;5.13;3.50;;;18.80;99.90;;;;;;4146132;28;20236;-78
2022/10/04 01:26:46;;;;;;;5.25;4.03;;;18.80;99.90;;;;;;4146677;28;20537;-78
2022/10/04 01:28:48;;;;;;;6.18;4.07;;;18.80;99.90;;;;;;4145527;28;20263;-77
2022/10/04 01:30:51;;;;;;;4.75;4.15;;;18.80;99.90;;;;;;4145324;28;20305;-78
2022/10/04 01:32:54;;;;;;;4.93;3.78;;;18.80;99.90;;;;;;4146792;28;20733;-78
2022/10/04 01:34:56;;;;;;;5.05;4.00;;;18.80;99.90;;;;;;4145300;28;20271;-78
2022/10/04 01:37:00;;;;;;;4.28;3.78;;;18.80;99.90;;;;;;4144641;28;20251;-78
2022/10/04 01:39:04;;;;;;;5.07;4.20;;;18.80;99.90;;;;;;4143982;28;20225;-78
2022/10/04 01:41:09;;;;;;;5.13;4.10;;;18.80;99.90;;;;;;4146011;28;20225;-78
2022/10/04 01:43:17;;;;;;;5.97;4.25;;;18.80;99.90;;;;;;4150194;28;20629;-77
2022/10/04 01:45:26;;;;;;;4.72;3.72;;;18.70;99.90;;;;;;4150949;28;20240;-77
2022/10/04 01:47:35;;;;;;;4.93;3.83;;;18.80;99.90;;;;;;4144718;28;20229;-77
2022/10/04 01:49:40;;;;;;;5.95;3.97;;;18.70;99.90;;;;;;4144881;28;20259;-77
2022/10/04 01:51:48;;;;;;;5.15;3.70;;;18.80;99.90;;;;;;4150171;28;20244;-77
2022/10/04 01:53:55;;;;;;;4.63;3.40;;;18.70;99.90;;;;;;4150746;28;20208;-77
2022/10/04 01:56:08;;;;;;;4.70;3.80;;;18.80;99.90;;;;;;4145811;28;20217;-77
2022/10/04 01:58:14;;;;;;;5.80;4.05;;;18.70;99.90;;;;;;4143141;28;20259;-77
2022/10/04 02:00:20;;;;;;;6.47;3.95;;;18.70;99.90;;;;;;4145658;28;20654;-78
2022/10/04 02:02:30;;;;;;;4.90;3.78;;;18.70;99.90;;;;;;4144226;28;20666;-77
2022/10/04 02:04:36;;;;;;;5.35;3.85;;;18.70;99.90;;;;;;4146062;28;20217;-78
2022/10/04 02:06:42;;;;;;;5.43;3.83;;;18.70;99.90;;;;;;4145771;28;20249;-78
2022/10/04 02:08:49;;;;;;;7.22;4.18;;;18.70;99.90;;;;;;4146376;28;20271;-77
2022/10/04 02:10:53;;;;;;;6.28;3.60;;;18.70;99.90;;;;;;4145264;28;20650;-78
2022/10/04 02:12:57;;;;;;;6.35;4.07;;;18.70;99.90;;;;;;4147065;28;20303;-78
2022/10/04 02:15:02;;;;;;;4.10;3.58;;;18.70;99.90;;;;;;4145443;28;20275;-78
2022/10/04 02:17:09;;;;;;;4.75;3.70;;;18.70;99.90;;;;;;4145214;28;20224;-78
2022/10/04 02:19:12;;;;;;;4.88;4.28;;;18.60;99.90;;;;;;4142277;28;20627;-78
2022/10/04 02:21:16;;;;;;;4.35;3.72;;;18.70;99.90;;;;;;4143451;28;20623;-78
2022/10/04 02:23:20;;;;;;;5.28;3.63;;;18.60;99.90;;;;;;4145101;28;20213;-78
2022/10/04 02:25:23;;;;;;;6.43;4.03;;;18.70;99.90;;;;;;4144435;28;20232;-78
2022/10/04 02:27:30;;;;;;;7.00;4.28;;;18.60;99.90;;;;;;4143779;28;20217;-78
2022/10/04 02:29:34;;;;;;;4.95;4.00;;;18.70;99.90;;;;;;4142703;28;20224;-77
2022/10/04 02:34:00;;;;;;;5.75;4.00;;;18.60;99.90;;;;;;4144799;28;20201;-77
2022/10/04 02:36:02;;;;;;;5.18;3.72;;;18.60;99.90;;;;;;4144828;28;20205;-77
2022/10/04 02:38:14;;;;;;;4.72;3.47;;;18.60;99.90;;;;;;4144724;28;20217;-78
2022/10/04 02:40:21;;;;;;;5.03;3.67;;;18.60;99.90;;;;;;4146175;28;20212;-78
2022/10/04 02:42:38;;;;;;;5.60;3.80;;;18.60;99.90;;;;;;4143981;28;20243;-77
2022/10/04 02:44:45;;;;;;;6.07;4.28;;;18.60;99.90;;;;;;4146941;28;20307;-77
2022/10/04 02:46:53;;;;;;;5.63;4.10;;;18.60;99.90;;;;;;4148703;28;20212;-77
2022/10/04 02:48:58;;;;;;;4.13;3.70;;;18.70;99.90;;;;;;4148901;28;20216;-77
2022/10/04 02:51:11;;;;;;;5.30;3.80;;;18.60;99.90;;;;;;4148728;28;20221;-77
2022/10/04 02:53:21;;;;;;;4.40;3.72;;;18.60;99.90;;;;;;4147843;28;20248;-77
2022/10/04 02:55:26;;;;;;;6.30;4.03;;;18.60;99.90;;;;;;4148294;28;20550;-77
2022/10/04 02:57:31;;;;;;;5.18;3.95;;;18.60;99.90;;;;;;4147817;28;20225;-77
2022/10/04 02:59:34;;;;;;;5.35;3.83;;;18.60;99.90;;;;;;4147402;28;20265;-77
2022/10/04 03:01:46;;;;;;;5.18;3.67;;;18.60;99.90;;;;;;4148506;28;20217;-78
2022/10/04 03:03:48;;;;;;;4.28;3.67;;;18.60;99.90;;;;;;4148387;28;20259;-77
2022/10/04 03:05:59;;;;;;;6.30;4.32;;;18.60;99.90;;;;;;4147856;28;20237;-78
2022/10/04 03:08:01;;;;;;;5.22;4.18;;;18.60;99.90;;;;;;4148323;28;20220;-77
2022/10/04 03:10:08;;;;;;;6.85;3.53;;;18.60;99.90;;;;;;4147574;28;20730;-78
2022/10/04 03:12:12;;;;;;;5.65;3.75;;;18.60;99.90;;;;;;4146300;28;20263;-78
2022/10/04 03:14:20;;;;;;;4.30;3.65;;;18.60;99.90;;;;;;4148116;28;20217;-78
2022/10/04 03:16:23;;;;;;;5.53;4.03;;;18.60;99.90;;;;;;4146704;28;20210;-78
2022/10/04 03:18:27;;;;;;;4.60;3.53;;;18.60;99.90;;;;;;4147490;28;20217;-78
2022/10/04 03:20:30;;;;;;;5.00;3.97;;;18.60;99.90;;;;;;4148197;28;20308;-78
2022/10/04 03:22:32;;;;;;;4.95;3.55;;;18.60;99.90;;;;;;4147492;28;20275;-78
2022/10/04 03:24:39;;;;;;;4.97;3.85;;;18.60;99.90;;;;;;4145957;28;20618;-78
2022/10/04 03:26:44;;;;;;;4.60;3.92;;;18.60;99.90;;;;;;4146879;28;20237;-77
2022/10/04 03:28:46;;;;;;;5.00;3.75;;;18.60;99.90;;;;;;4147398;28;20697;-77
2022/10/04 03:30:49;;;;;;;4.30;3.80;;;18.60;99.90;;;;;;4147277;28;20217;-77
2022/10/04 03:32:52;;;;;;;5.60;3.65;;;18.60;99.90;;;;;;4148449;28;20263;-77
2022/10/04 03:34:59;;;;;;;5.00;3.33;;;18.60;99.90;;;;;;4147802;28;20624;-77
2022/10/04 03:37:02;;;;;;;4.18;3.72;;;18.60;99.90;;;;;;4146696;28;20275;-77
2022/10/04 03:39:09;;;;;;;4.85;3.97;;;18.50;99.90;;;;;;4137806;28;20265;-77
2022/10/04 03:41:12;;;;;;;5.20;4.13;;;18.60;99.90;;;;;;4140143;28;21075;-77
2022/10/04 03:43:15;;;;;;;5.15;4.07;;;18.50;99.90;;;;;;4143824;28;20299;-77
2022/10/04 03:45:19;;;;;;;4.40;3.60;;;18.50;99.90;;;;;;4148897;28;20682;-78
2022/10/04 03:47:25;;;;;;;5.85;3.95;;;18.60;99.90;;;;;;4147619;28;20217;-77
2022/10/04 03:49:33;;;;;;;5.05;3.55;;;18.60;99.90;;;;;;4145692;28;20233;-77
2022/10/04 03:51:43;;;;;;;5.18;3.83;;;18.60;99.90;;;;;;4147351;28;20224;-78
2022/10/04 03:53:49;;;;;;;5.15;3.75;;;18.50;99.90;;;;;;4146225;28;20646;-77
2022/10/04 03:55:52;;;;;;;4.72;3.40;;;18.50;99.90;;;;;;4146924;28;20295;-77
2022/10/04 03:57:54;;;;;;;6.38;4.20;;;18.60;99.90;;;;;;4147348;28;20621;-78
2022/10/04 03:59:58;;;;;;;4.65;3.65;;;18.50;99.90;;;;;;4147267;28;20658;-77
2022/10/04 04:02:10;;;;;;;5.45;3.97;;;18.50;99.90;;;;;;4147290;28;20213;-77
2022/10/04 04:04:22;;;;;;;6.13;3.83;;;18.50;99.90;;;;;;4146476;28;20244;-78
2022/10/04 04:06:27;;;;;;;5.53;3.53;;;18.50;99.90;;;;;;4144495;28;20672;-76
2022/10/04 04:08:34;;;;;;;4.93;3.40;;;18.50;99.90;;;;;;4146759;28;20266;-77
2022/10/04 04:10:41;;;;;;;5.15;3.75;;;18.50;99.90;;;;;;4146407;28;20269;-76
2022/10/04 04:12:47;;;;;;;6.25;3.97;;;18.50;99.90;;;;;;4146769;28;20272;-77
2022/10/04 04:14:51;;;;;;;6.05;3.58;;;18.50;99.90;;;;;;4146508;28;20259;-77
2022/10/04 04:17:15;;;;;;;4.18;3.38;;;18.50;99.90;;;;;;4145116;28;20213;-77
2022/10/04 04:19:22;;;;;;;5.03;3.78;;;18.50;99.90;;;;;;4146947;28;20232;-75
2022/10/04 04:21:26;;;;;;;4.38;3.70;;;18.50;99.90;;;;;;4163093;28;20220;-77
2022/10/04 04:23:32;;;;;;;6.22;3.75;;;18.50;99.90;;;;;;4153401;28;20263;-77
2022/10/04 04:25:38;;;;;;;4.80;3.70;;;18.50;99.90;;;;;;4149053;28;20725;-77
2022/10/04 04:27:43;;;;;;;6.43;4.13;;;18.50;99.90;;;;;;4147624;28;20239;-77
2022/10/04 04:29:49;;;;;;;5.20;3.47;;;18.50;99.90;;;;;;4146450;28;20213;-77
2022/10/04 04:31:55;;;;;;;4.93;3.58;;;18.40;99.90;;;;;;4147114;28;20264;-77
2022/10/04 04:33:59;;;;;;;6.43;3.95;;;18.50;99.90;;;;;;4145670;28;20276;-77
2022/10/04 04:36:06;;;;;;;5.07;3.47;;;18.50;99.90;;;;;;4147025;28;20255;-77
2022/10/04 04:38:17;;;;;;;5.18;4.13;;;18.50;99.90;;;;;;4147591;28;20593;-77
2022/10/04 04:40:25;;;;;;;4.70;3.55;;;18.50;99.90;;;;;;4147378;28;20217;-77
2022/10/04 04:42:31;;;;;;;4.57;3.47;;;18.40;99.90;;;;;;4145615;28;20267;-78
2022/10/04 04:44:33;;;;;;;4.85;3.53;;;18.40;99.90;;;;;;4146493;28;20279;-77
2022/10/04 04:46:38;;;;;;;5.60;3.60;;;18.50;99.90;;;;;;4144316;28;20241;-78
2022/10/04 04:48:44;;;;;;;3.80;3.40;;;18.50;99.90;;;;;;4145646;28;20217;-78
2022/10/04 04:50:52;;;;;;;5.32;3.40;;;18.50;99.90;;;;;;4146101;28;20229;-78
2022/10/04 04:52:58;;;;;;;5.32;3.60;;;18.40;99.90;;;;;;4145626;28;20646;-78
2022/10/04 04:55:03;;;;;;;5.45;3.53;;;18.50;99.90;;;;;;4145247;28;20217;-78
2022/10/04 04:57:07;;;;;;;4.38;3.78;;;18.40;99.90;;;;;;4146379;28;20217;-77
2022/10/04 04:59:11;;;;;;;4.50;3.35;;;18.40;99.90;;;;;;4146641;28;20275;-77
2022/10/04 05:01:23;;;;;;;4.45;3.60;;;18.40;99.90;;;;;;4145661;28;20542;-77
2022/10/04 05:03:25;;;;;;;5.03;3.72;;;18.40;99.90;;;;;;4146506;28;20213;-77
2022/10/04 05:05:30;;;;;;;4.95;3.70;;;18.40;99.90;;;;;;4145876;28;20229;-77
2022/10/04 05:07:32;;;;;;;6.53;3.80;;;18.40;99.90;;;;;;4144990;28;20237;-77
2022/10/04 05:09:37;;;;;;;5.10;3.50;;;18.40;99.90;;;;;;4144692;28;20267;-77
2022/10/04 05:11:40;;;;;;;5.10;3.65;;;18.30;99.90;;;;;;4145915;28;20221;-77
2022/10/04 05:13:47;;;;;;;7.28;3.90;;;18.40;99.90;;;;;;4144520;28;20271;-77
2022/10/04 05:15:54;;;;;;;4.88;3.65;;;18.40;99.90;;;;;;4145968;28;20216;-78
2022/10/04 05:17:58;;;;;;;4.82;3.80;;;18.40;99.90;;;;;;4144503;28;20214;-78
2022/10/04 05:20:02;;;;;;;4.93;3.22;;;18.30;99.90;;;;;;4146521;28;20271;-78
2022/10/04 05:22:11;;;;;;;4.50;3.42;;;18.40;99.90;;;;;;4145232;28;20217;-78
2022/10/04 05:24:20;;;;;;;5.30;3.42;;;18.40;99.90;;;;;;4144182;28;20216;-78
2022/10/04 05:26:27;;;;;;;5.90;3.95;;;18.40;99.90;;;;;;4144370;28;20278;-78
2022/10/04 05:28:29;;;;;;;5.55;3.72;;;18.30;99.90;;;;;;4144827;28;20259;-77
2022/10/04 05:30:43;;;;;;;4.93;3.53;;;18.40;99.90;;;;;;4145488;28;20217;-77
2022/10/04 05:32:57;;;;;;;5.05;3.42;;;18.40;99.90;;;;;;4144448;28;20228;-78
2022/10/04 05:35:02;;;;;;;5.10;3.65;;;18.30;99.90;;;;;;4146019;28;20347;-77
2022/10/04 05:37:23;;;;;;;3.85;3.38;;;18.40;99.90;;;;;;4144955;28;20217;-78
2022/10/04 05:39:29;;;;;;;4.35;3.47;;;18.30;99.90;;;;;;4144765;28;20209;-77
2022/10/04 05:41:40;;;;;;;5.07;3.70;;;18.40;99.90;;;;;;4146566;28;20650;-77
2022/10/04 05:43:46;;;;;;;4.43;3.65;;;18.40;99.90;;;;;;4146119;28;20939;-77
2022/10/04 05:46:06;;;;;;;4.38;3.30;;;18.30;99.90;;;;;;4147421;28;21054;-77
2022/10/04 05:48:09;;;;;;;3.78;3.28;;;18.40;99.90;;;;;;4138555;28;20240;-77
2022/10/04 05:50:16;;;;;;;4.18;3.55;;;18.40;99.90;;;;;;4133928;28;20213;-77
2022/10/04 05:52:29;;;;;;;4.65;3.70;;;18.30;99.90;;;;;;4142595;28;20244;-77
2022/10/04 05:54:35;;;;;;;3.85;3.30;;;18.30;99.90;;;;;;4138931;28;20263;-77
2022/10/04 05:57:19;;;;;;;5.00;3.65;;;18.30;99.90;;;;;;4143239;28;20260;-77
2022/10/04 05:59:44;;;;;;;4.82;3.42;;;18.30;99.90;;;;;;4133534;28;20222;-78
2022/10/04 06:01:56;;;;;;;4.93;3.42;;;18.30;99.90;;;;;;4141757;28;20217;-77
2022/10/04 06:04:15;;;;;;;4.80;3.65;;;18.30;99.90;;;;;;4135766;28;20666;-78
2022/10/04 06:06:24;;;;;;;4.72;3.45;;;18.30;99.90;;;;;;4136659;28;20268;-78
2022/10/04 06:08:36;;;;;;;4.28;3.33;;;18.30;99.90;;;;;;4139635;28;20232;-78
2022/10/04 06:10:56;;;;;;;5.97;3.50;;;18.30;99.90;;;;;;4142348;28;20221;-78
2022/10/04 06:13:04;;;;;;;4.65;3.50;;;18.30;99.90;;;;;;4136033;28;20221;-77
2022/10/04 06:15:46;;;;;;;5.18;3.33;;;18.30;99.90;;;;;;4144825;28;20328;-77
2022/10/04 06:18:02;;;;;;;3.75;3.10;;;18.30;99.90;;;;;;4134529;28;20214;-78
2022/10/04 06:20:22;;;;;;;4.38;3.28;;;18.30;99.90;;;;;;4141167;28;20263;-78
2022/10/04 06:22:26;;;;;;;4.47;3.50;;;18.30;99.90;;;;;;4136704;28;20355;-77
2022/10/04 06:24:33;;;;;;;4.00;3.45;;;18.30;99.90;;;;;;4134774;28;20224;-78
2022/10/04 06:26:42;;;;;;;4.07;3.35;;;18.30;99.90;;;;;;4145407;28;20217;-77
2022/10/04 06:28:49;;;;;;;4.00;3.28;;;18.30;99.90;;;;;;4135609;28;20620;-77
2022/10/04 06:31:14;;;;;;;4.13;3.05;;;18.30;99.90;;;;;;4144534;28;20212;-78
2022/10/04 06:33:31;;;;;;;4.25;3.40;;;18.30;99.90;;;;;;4143949;28;20225;-77
2022/10/04 06:36:05;;;;;;;5.40;3.63;;;18.30;99.90;;;;;;4136080;28;20267;-77
2022/10/04 06:38:40;;;;;;;5.85;3.60;;;18.30;99.90;;;;;;4111872;28;20213;-77
2022/10/04 06:41:21;;;;;;;4.40;3.42;;;18.30;99.90;;;;;;4139195;28;20209;-77
2022/10/04 06:43:38;;;;;;;3.42;2.92;;;18.30;99.90;;;;;;4102046;28;20247;-77
2022/10/04 06:45:57;;;;;;;5.43;3.15;;;18.30;99.90;;;;;;4141458;28;20217;-77
2022/10/04 06:48:23;;;;;;;4.47;3.33;;;18.30;99.90;;;;;;4143973;28;20350;-77
2022/10/04 06:50:33;;;;;;;4.60;3.50;;;18.30;99.90;;;;;;4135551;28;20626;-77
2022/10/04 06:52:52;;;;;;;3.90;3.03;;;18.30;99.90;;;;;;4145273;28;20237;-77
2022/10/04 06:55:17;;;;;;;5.13;3.42;;;18.30;99.90;;;;;;4142889;28;20213;-79
2022/10/04 06:57:43;;;;;;;5.13;3.13;;;18.40;99.90;;;;;;4141003;28;21667;-76
2022/10/04 07:00:08;;;;;;;3.88;3.00;;;18.40;99.90;;;;;;4141596;28;20208;-75
2022/10/04 07:02:16;;;;;;;4.72;3.45;;;18.40;99.90;;;;;;4135959;28;20272;-76
2022/10/04 07:04:31;;;;;;;4.47;3.30;;;18.40;99.90;;;;;;4146933;28;20258;-75
2022/10/04 07:06:46;;;;;;;7.07;3.55;;;18.40;99.90;;;;;;4136613;28;20225;-75
2022/10/04 07:08:50;;;;;;;4.40;3.00;;;18.40;99.90;;;;;;4140979;28;20241;-76
2022/10/04 07:10:56;;;;;;;6.57;3.65;;;18.40;99.90;;;;;;4143834;28;20217;-76
2022/10/04 07:13:16;;;;;;;4.43;2.95;;;18.50;99.90;;;;;;4141250;28;20283;-75
2022/10/04 07:15:24;;;;;;;4.80;3.88;;;18.60;99.90;;;;;;4134483;28;20221;-76
2022/10/04 07:17:30;;;;;;;4.45;3.20;;;18.60;99.90;;;;;;4142173;28;20259;-75
2022/10/04 07:19:37;;;;;;;5.55;3.88;;;18.70;99.90;;;;;;4136812;28;20221;-75
2022/10/04 07:21:53;;;;;;;5.07;3.40;;;18.80;99.90;;;;;;4141891;28;20279;-75
2022/10/04 07:24:00;;;;;;;5.18;3.10;;;18.80;99.90;;;;;;4136812;28;20221;-72
2022/10/04 07:26:07;;;;;;;5.38;3.42;;;18.80;99.90;;;;;;4140983;28;20271;-72
2022/10/04 07:30:40;;;;;;;4.82;3.17;;;18.90;99.90;;;;;;4138605;28;20197;-72
2022/10/04 07:32:45;;;;;;;5.00;2.55;;;18.80;99.90;;;;;;4134871;28;20263;-73
2022/10/04 07:34:52;;;;;;;5.68;3.33;;;18.80;99.90;;;;;;4147076;28;20248;-73
2022/10/04 07:36:59;;;;;;;3.47;2.90;;;18.80;99.90;;;;;;4146789;28;20221;-73
2022/10/04 07:39:09;;;;;;;3.92;2.95;;;18.90;99.90;;;;;;4143666;28;20209;-72
2022/10/04 07:41:20;;;;;;;4.13;3.35;;;18.90;99.90;;;;;;4147120;28;20221;-72
2022/10/04 07:43:28;;;;;;;4.35;3.10;;;18.90;99.90;;;;;;4143183;28;20260;-73
2022/10/04 07:45:32;;;;;;;4.18;3.20;;;18.80;99.90;;;;;;4149527;28;21006;-73
2022/10/04 07:47:35;;;;;;;6.65;3.20;;;18.90;99.90;;;;;;4143363;28;20217;-72
2022/10/04 07:49:39;;;;;;;5.47;3.08;;;19.00;99.90;;;;;;4143569;28;20217;-72
2022/10/04 07:52:00;;;;;;;3.70;2.80;;;19.10;99.90;;;;;;4146704;28;20574;-72
2022/10/04 07:54:12;;;;;;;4.47;3.45;;;19.10;99.90;;;;;;4138559;28;20229;-72
2022/10/04 07:56:23;;;;;;;5.13;3.20;;;19.20;99.90;;;;;;4135658;28;20271;-74
2022/10/04 07:58:40;;;;;;;8.18;3.10;;;19.10;99.90;;;;;;4139010;28;20281;-73
2022/10/04 08:00:51;;;;;;;4.85;3.17;;;19.10;99.90;;;;;;4143716;28;20221;-73
2022/10/04 08:03:10;;;;;;;6.82;2.95;;;19.20;99.90;;;;;;4144133;28;20254;-72
2022/10/04 08:05:20;;;;;;;4.18;3.28;;;19.20;99.90;;;;;;4143606;28;20280;-72
2022/10/04 08:07:31;;;;;;;6.80;3.30;;;19.20;99.90;;;;;;4141473;28;20715;-74
2022/10/04 08:09:43;;;;;;;3.30;2.90;;;19.20;99.90;;;;;;4141451;28;20597;-72
2022/10/04 08:14:54;;;;;;;3.72;2.72;;;19.00;99.90;;;;;;4139067;28;20185;-72
2022/10/04 08:17:11;;;;;;;6.20;3.20;;;19.10;99.90;;;;;;4131422;28;20221;-70
2022/10/04 08:19:35;;;;;;;4.97;3.58;;;19.00;99.90;;;;;;4139097;28;20263;-71
2022/10/04 08:21:48;;;;;;;4.95;3.28;;;19.10;99.90;;;;;;4137289;28;20262;-76
2022/10/04 08:24:05;;;;;;;4.57;3.28;;;19.20;99.90;;;;;;4140640;28;20221;-77
2022/10/04 08:26:23;;;;;;;8.88;3.00;;;19.20;99.90;;;;;;4137410;28;20264;-76
2022/10/04 08:31:05;;;;;;;5.25;3.05;;;19.20;99.90;;;;;;4144244;28;20198;-78
2022/10/04 08:33:18;;;;;;;3.58;3.00;;;19.20;99.90;;;;;;4146367;28;20217;-79
2022/10/04 08:35:38;;;;;;;5.18;3.15;;;19.20;99.90;;;;;;4133085;28;20227;-77
2022/10/04 08:37:52;;;;;;;5.43;3.33;;;19.20;99.90;;;;;;4141715;28;20225;-77
2022/10/04 08:40:18;;;;;;;5.82;3.08;;;19.20;99.90;;;;;;4134158;28;20272;-80
2022/10/04 08:43:03;;;;;;;5.45;3.22;;;19.20;99.90;;;;;;4141158;28;20228;-79
2022/10/04 08:45:38;;;;;;;3.22;2.60;;;19.20;99.90;;;;;;4126074;28;20564;-78
2022/10/04 08:48:10;;;;;;;5.43;2.80;;;19.40;99.90;;;;;;4144934;28;20213;-77
2022/10/04 08:50:49;;;;;;;5.70;2.67;;;19.20;99.90;;;;;;4142573;28;20209;-76
2022/10/04 08:53:14;;;;;;;3.70;2.70;;;19.10;99.90;;;;;;4140039;28;20240;-77
2022/10/04 08:56:00;;;;;;;5.00;3.40;;;19.20;99.90;;;;;;4141498;28;20213;-79
2022/10/04 08:58:29;;;;;;;5.93;3.13;;;19.20;99.90;;;;;;4127180;28;20213;-80
2022/10/04 09:00:45;;;;;;;6.00;3.10;;;19.20;99.90;;;;;;4133505;28;20283;-78
2022/10/04 09:03:18;;;;;;;4.80;2.88;;;19.30;99.90;;;;;;4140674;28;20619;-78
2022/10/04 09:05:56;;;;;;;5.05;2.92;;;19.30;99.90;;;;;;4111768;28;20217;-79
2022/10/04 09:08:18;;;;;;;6.57;3.17;;;19.30;99.90;;;;;;4142709;28;20212;-78
2022/10/04 09:10:45;;;;;;;5.90;3.15;;;19.30;99.90;;;;;;4145335;28;20209;-78
2022/10/04 09:13:05;;;;;;;5.97;3.45;;;19.30;99.90;;;;;;4143419;28;20639;-76
2022/10/04 09:15:41;;;;;;;4.80;3.00;;;19.30;99.90;;;;;;4141788;28;20221;-77
2022/10/04 09:17:53;;;;;;;5.88;3.00;;;19.30;99.90;;;;;;4142971;28;20212;-77
2022/10/04 09:20:11;;;;;;;4.05;2.80;;;19.30;99.90;;;;;;4143123;28;20260;-76
2022/10/04 09:22:19;;;;;;;4.75;2.85;;;19.30;99.90;;;;;;4143155;28;20213;-78
2022/10/04 09:24:43;;;;;;;6.63;3.50;;;19.40;99.90;;;;;;4143557;28;20245;-77
2022/10/04 09:26:51;;;;;;;6.07;3.10;;;19.40;99.90;;;;;;4138378;28;20277;-76
2022/10/04 09:29:14;;;;;;;5.55;3.17;;;19.40;99.90;;;;;;4144891;28;20281;-74
2022/10/04 09:31:40;;;;;;;8.93;3.00;;;19.40;99.90;;;;;;4141017;28;20214;-76
2022/10/04 09:33:58;;;;;;;5.40;3.05;;;19.30;99.90;;;;;;4142998;28;20267;-75
2022/10/04 09:36:27;;;;;;;3.92;3.03;;;19.40;99.90;;;;;;4143708;28;20624;-76
2022/10/04 09:39:11;;;;;;;5.40;3.13;;;19.50;99.90;;;;;;4145132;28;20228;-77
2022/10/04 09:41:37;;;;;;;6.25;3.40;;;19.50;99.90;;;;;;4094894;28;20225;-72
2022/10/04 09:44:12;;;;;;;5.78;3.25;;;19.50;99.90;;;;;;4138923;28;20217;-75
2022/10/04 09:46:29;;;;;;;6.80;2.95;;;19.50;99.90;;;;;;4142085;28;20224;-75
2022/10/04 09:48:41;;;;;;;4.05;2.90;;;19.50;99.90;;;;;;4138465;28;20225;-75
2022/10/04 09:51:11;;;;;;;4.05;2.60;;;19.50;99.90;;;;;;4138184;28;20267;-74
2022/10/04 09:53:29;;;;;;;5.40;3.33;;;19.50;99.90;;;;;;4136786;28;20232;-77
2022/10/04 09:55:51;;;;;;;6.22;3.03;;;19.60;99.90;;;;;;4137280;28;20220;-73
2022/10/04 09:58:11;;;;;;;3.97;3.22;;;19.60;99.90;;;;;;4140915;28;20654;-74
2022/10/04 10:00:22;;;;;;;3.88;3.15;;;19.60;99.90;;;;;;4141437;28;20239;-74
2022/10/04 10:02:45;;;;;;;6.00;3.25;;;19.60;99.90;;;;;;4141995;28;20220;-73
2022/10/04 10:04:52;;;;;;;4.78;3.08;;;19.60;99.90;;;;;;4142784;28;20216;-74
2022/10/04 10:07:10;;;;;;;5.93;3.10;;;19.60;99.90;;;;;;4143702;28;20738;-76
2022/10/04 10:15:12;;;;;;;5.28;2.88;;;19.60;99.90;;;;;;4127349;28;20209;-75
2022/10/04 10:17:24;;;;;;;4.28;3.10;;;19.60;99.90;;;;;;4140669;28;20248;-74
2022/10/04 10:19:55;;;;;;;5.15;3.35;;;19.60;99.90;;;;;;4137243;28;20213;-75
2022/10/04 10:22:17;;;;;;;4.75;2.78;;;19.60;99.90;;;;;;4138677;28;20217;-75
2022/10/04 10:25:00;;;;;;;5.35;3.22;;;19.70;99.90;;;;;;4142126;28;20263;-74
2022/10/04 10:27:20;;;;;;;5.47;3.03;;;19.70;99.90;;;;;;4106332;28;20225;-74
2022/10/04 10:29:40;;;;;;;4.30;3.38;;;19.70;99.90;;;;;;4137985;28;20245;-71
2022/10/04 10:32:03;;;;;;;7.15;3.08;;;19.60;99.90;;;;;;4141065;28;20224;-75
2022/10/04 10:34:33;;;;;;;9.40;3.53;;;19.60;99.90;;;;;;4142757;28;20209;-75
2022/10/04 10:36:58;;;;;;;5.43;2.63;;;19.50;99.90;;;;;;4141591;28;20875;-74
2022/10/04 10:39:36;;;;;;;6.50;2.72;;;19.60;99.90;;;;;;4144341;28;20208;-75
2022/10/04 10:41:54;;;;;;;3.80;2.53;;;19.60;99.90;;;;;;4143177;28;20212;-74
2022/10/04 10:44:10;;;;;;;6.35;2.83;;;19.60;99.90;;;;;;4144579;28;20258;-74
2022/10/04 10:46:32;;;;;;;5.75;2.63;;;19.50;99.90;;;;;;4143221;28;20269;-74
2022/10/04 10:49:01;;;;;;;4.45;2.95;;;19.50;99.90;;;;;;4141233;28;20273;-74
2022/10/04 10:51:14;;;;;;;7.75;3.10;;;19.50;99.90;;;;;;4139983;28;20620;-74
2022/10/04 10:53:55;;;;;;;7.60;3.25;;;19.50;99.90;;;;;;4144595;28;20294;-74
2022/10/04 10:56:34;;;;;;;5.55;3.10;;;19.40;99.90;;;;;;4124761;28;20282;-74
2022/10/04 10:59:09;;;;;;;4.43;2.72;;;19.50;99.90;;;;;;4142698;28;20804;-74
2022/10/04 11:01:46;;;;;;;4.15;2.58;;;19.40;99.90;;;;;;4106936;28;21617;-74
2022/10/04 11:04:34;;;;;;;4.53;3.00;;;19.40;99.90;;;;;;4145214;28;20259;-75
2022/10/04 11:07:19;;;;;;;4.60;2.60;;;19.40;99.90;;;;;;4108763;28;20222;-74
2022/10/04 11:09:45;;;;;;;5.03;2.70;;;19.40;99.90;;;;;;4135973;28;20263;-75
2022/10/04 11:12:37;;;;;;;3.33;2.72;;;19.40;99.90;;;;;;4138719;28;20214;-73
2022/10/04 11:15:07;;;;;;;3.55;2.67;;;19.40;99.90;;;;;;4120341;28;20224;-71
2022/10/04 11:17:24;;;;;;;5.13;2.83;;;19.40;99.90;;;;;;4145950;28;20267;-73
2022/10/04 11:20:03;;;;;;;6.05;2.90;;;19.50;99.90;;;;;;4137416;28;20272;-72
2022/10/04 11:22:29;;;;;;;5.45;3.00;;;19.50;99.90;;;;;;4100024;28;20279;-71
2022/10/04 11:25:05;;;;;;;5.20;2.85;;;19.50;99.90;;;;;;4139131;28;20225;-72
2022/10/04 11:27:43;;;;;;;4.50;2.78;;;19.50;99.90;;;;;;4146067;28;20216;-72
2022/10/04 11:30:10;;;;;;;5.85;3.22;;;19.60;99.90;;;;;;4135861;28;20240;-73
2022/10/04 11:32:50;;;;;;;3.72;2.78;;;19.60;99.90;;;;;;4141985;28;20284;-73
2022/10/04 11:35:36;;;;;;;4.72;2.78;;;19.60;99.90;;;;;;4098335;28;20713;-72
2022/10/04 11:37:57;;;;;;;5.68;2.70;;;19.60;99.90;;;;;;4145340;28;20280;-72
2022/10/04 11:40:23;;;;;;;5.00;2.95;;;19.60;99.90;;;;;;4147536;28;20205;-74
2022/10/04 11:42:38;;;;;;;4.22;3.05;;;19.60;99.90;;;;;;4145398;28;20317;-75
2022/10/04 11:45:32;;;;;;;4.93;2.80;;;19.60;99.90;;;;;;4145392;28;20209;-74
2022/10/04 11:47:45;;;;;;;4.68;2.58;;;19.60;99.90;;;;;;4090491;28;20363;-73
2022/10/04 11:49:59;;;;;;;4.20;3.08;;;19.70;99.90;;;;;;4134230;28;20236;-72
2022/10/04 11:52:37;;;;;;;4.85;2.80;;;19.60;99.90;;;;;;4147261;28;20279;-73
2022/10/04 11:55:08;;;;;;;3.83;2.80;;;19.70;99.90;;;;;;4138469;28;20210;-74